Oregonia, Ohio
Current Conditions -  °F | °C
As of 1:53 AM on Saturday 29 Nov 2014 (Local Time) from KMGY Reporting Station
Clear Clear  
Wind Chill: 23°   Ceiling: Unl
Heat Index: 33°   Visibility: 10mi
Dew Point: 20°   Wind: 14mph
Humidity: 59%   Direction: 180°S
Pressure: 30.04"   Gusts: NA
Location:  39.45°N, 84.1°W
Report Text: KMGY 290653Z AUTO 18012KT 10SM CLR 01/M07 A3004 RMK AO2 SLP182 T00061067
Loading
Personal Weather Stations






























Interactive Weather Map New forecast layout! Learn more

10-Day Weather Forecast

Advertisements
Track Severe Weather on mobile